Time;durP1;ratioP1;P1;durP2;ratioP2;P2;SDS_P1;SDS_P2;PMS_P1;PMS_P2;Temp;Humidity;BMP_temperature;BMP_pressure;BME280_temperature;BME280_humidity;BME280_pressure;Samples;Min_cycle;Max_cycle;Signal;HPM_P1;HPM_P2
2023/07/23 00:01:43;;;;;;;5.20;3.70;;;;;;;18.14;66.31;97855.97;5091360;28;20699;-85
2023/07/23 00:04:09;;;;;;;4.43;3.60;;;;;;;18.14;66.48;97861.31;5091326;28;20211;-85
2023/07/23 00:06:37;;;;;;;3.93;3.37;;;;;;;18.08;67.10;97855.75;5091005;28;20227;-85
2023/07/23 00:09:05;;;;;;;4.37;3.60;;;;;;;18.14;66.65;97853.28;5091274;28;20238;-85
2023/07/23 00:11:32;;;;;;;4.47;3.60;;;;;;;18.12;66.65;97849.94;5090652;28;20691;-85
2023/07/23 00:13:58;;;;;;;3.70;3.30;;;;;;;18.07;66.99;97849.56;5091365;28;20207;-84
2023/07/23 00:16:25;;;;;;;3.90;3.07;;;;;;;18.06;67.01;97855.94;5091144;28;20238;-84
2023/07/23 00:18:51;;;;;;;4.97;3.37;;;;;;;18.05;66.82;97851.56;5091257;28;20199;-85
2023/07/23 00:21:18;;;;;;;3.93;3.27;;;;;;;18.13;66.06;97854.28;5094374;28;20207;-85
2023/07/23 00:23:44;;;;;;;3.90;3.17;;;;;;;18.08;66.11;97845.06;5095078;28;20206;-85
2023/07/23 00:26:12;;;;;;;4.00;3.03;;;;;;;18.04;66.59;97849.88;5094761;28;20226;-85
2023/07/23 00:28:38;;;;;;;3.77;3.17;;;;;;;17.97;66.81;97846.16;5094774;28;20235;-85
2023/07/23 00:31:05;;;;;;;5.43;3.17;;;;;;;17.93;67.48;97860.03;5094041;28;20206;-85
2023/07/23 00:33:32;;;;;;;3.70;2.97;;;;;;;17.91;67.66;97854.00;5094886;28;20291;-85
2023/07/23 00:35:58;;;;;;;3.87;3.20;;;;;;;17.85;68.50;97860.81;5094845;28;20233;-85
2023/07/23 00:38:25;;;;;;;4.33;3.10;;;;;;;17.85;68.19;97858.13;5094934;28;20218;-85
2023/07/23 00:40:52;;;;;;;3.93;3.03;;;;;;;17.83;68.05;97853.94;5094330;28;20206;-85
2023/07/23 00:43:20;;;;;;;4.40;3.10;;;;;;;17.82;68.09;97858.47;5094957;28;20598;-85
2023/07/23 00:45:46;;;;;;;3.47;3.17;;;;;;;17.76;68.23;97856.41;5095110;28;20210;-85
2023/07/23 00:48:13;;;;;;;4.43;3.50;;;;;;;17.69;69.21;97855.34;5095099;28;20231;-85
2023/07/23 00:50:39;;;;;;;3.57;3.13;;;;;;;17.66;69.39;97855.66;5094129;28;20214;-85
2023/07/23 00:53:07;;;;;;;3.73;3.07;;;;;;;17.62;69.57;97854.28;5094905;28;20688;-85
2023/07/23 00:55:33;;;;;;;3.77;2.83;;;;;;;17.61;69.36;97852.63;5094852;28;20214;-84
2023/07/23 00:58:00;;;;;;;4.03;2.90;;;;;;;17.58;69.84;97852.09;5094500;28;20211;-85
2023/07/23 01:00:28;;;;;;;6.33;3.43;;;;;;;17.52;70.17;97853.56;5091312;28;20216;-84
2023/07/23 01:02:54;;;;;;;3.87;3.37;;;;;;;17.52;70.31;97845.56;5091655;28;20267;-85
2023/07/23 01:05:22;;;;;;;3.43;3.13;;;;;;;17.55;69.43;97842.56;5091937;28;20226;-85
2023/07/23 01:07:49;;;;;;;3.40;2.83;;;;;;;17.52;69.58;97842.88;5092750;28;20230;-85
2023/07/23 01:10:18;;;;;;;4.47;2.90;;;;;;;17.53;69.48;97839.22;5093978;28;20237;-91
2023/07/23 01:12:44;;;;;;;3.13;2.30;;;;;;;17.54;68.91;97835.53;5094566;28;20224;-84
2023/07/23 01:15:11;;;;;;;4.57;2.73;;;;;;;17.50;68.86;97833.34;5094576;28;20665;-84
2023/07/23 01:17:39;;;;;;;3.80;2.80;;;;;;;17.44;69.29;97837.44;5094257;28;20230;-84
2023/07/23 01:20:08;;;;;;;3.30;2.60;;;;;;;17.41;70.12;97835.09;5093689;28;20202;-85
2023/07/23 01:22:37;;;;;;;3.03;2.47;;;;;;;17.38;70.00;97829.25;5094192;28;20217;-84
2023/07/23 01:25:05;;;;;;;2.77;2.53;;;;;;;17.39;69.96;97831.75;5094053;28;20673;-85
2023/07/23 01:27:32;;;;;;;2.57;2.37;;;;;;;17.34;70.02;97834.03;5093786;28;20724;-85
2023/07/23 01:29:58;;;;;;;2.83;2.53;;;;;;;17.34;69.97;97828.69;5092526;28;20231;-85
2023/07/23 01:32:25;;;;;;;4.27;2.80;;;;;;;17.34;69.77;97828.69;5093802;28;20207;-85
2023/07/23 01:34:52;;;;;;;3.07;2.50;;;;;;;17.33;69.80;97820.81;5093817;28;20666;-85
2023/07/23 01:37:19;;;;;;;3.13;2.40;;;;;;;17.35;69.51;97818.81;5093734;28;20234;-85
2023/07/23 01:39:47;;;;;;;2.97;2.67;;;;;;;17.33;69.48;97810.97;5092981;28;20207;-85
2023/07/23 01:42:14;;;;;;;3.47;2.67;;;;;;;17.31;69.44;97812.94;5093760;28;20207;-84
2023/07/23 01:44:42;;;;;;;3.50;3.00;;;;;;;17.35;69.25;97810.81;5093514;28;20218;-84
2023/07/23 01:47:09;;;;;;;2.83;2.40;;;;;;;17.30;69.38;97816.63;5094243;28;20233;-85
2023/07/23 01:49:35;;;;;;;3.53;2.47;;;;;;;17.30;69.09;97816.63;5093122;28;20411;-85
2023/07/23 01:52:02;;;;;;;2.73;2.47;;;;;;;17.27;69.16;97816.94;5093703;28;20211;-85
2023/07/23 01:54:28;;;;;;;2.77;2.20;;;;;;;17.26;69.23;97806.41;5093763;28;20203;-85
2023/07/23 01:56:56;;;;;;;2.83;2.30;;;;;;;17.24;69.37;97805.72;5093402;28;20231;-84
2023/07/23 01:59:23;;;;;;;5.37;2.90;;;;;;;17.21;69.53;97804.19;5093092;28;20260;-84
2023/07/23 02:01:49;;;;;;;2.70;2.40;;;;;;;17.17;70.22;97808.16;5093401;28;20673;-84
2023/07/23 02:04:16;;;;;;;3.70;2.53;;;;;;;17.10;70.70;97809.78;5093486;28;20203;-84
2023/07/23 02:06:42;;;;;;;2.93;2.53;;;;;;;17.01;71.87;97810.69;5093434;28;20231;-84
2023/07/23 02:09:09;;;;;;;2.50;2.30;;;;;;;17.01;71.77;97805.34;5092670;28;20229;-84
2023/07/23 02:11:35;;;;;;;3.27;2.50;;;;;;;16.97;72.21;97814.69;5092974;28;20313;-84
2023/07/23 02:14:03;;;;;;;5.03;2.77;;;;;;;16.93;72.44;97807.94;5093250;28;20210;-84
2023/07/23 02:16:29;;;;;;;2.60;2.40;;;;;;;16.92;72.33;97811.63;5092936;28;20226;-84
2023/07/23 02:18:56;;;;;;;3.50;2.60;;;;;;;16.88;72.69;97809.41;5093236;28;20230;-85
2023/07/23 02:21:23;;;;;;;3.43;2.60;;;;;;;16.85;73.04;97805.22;5092260;28;20203;-84
2023/07/23 02:23:49;;;;;;;3.20;2.50;;;;;;;16.81;73.77;97801.16;5093339;28;20304;-84
2023/07/23 02:26:16;;;;;;;3.30;2.60;;;;;;;16.74;74.22;97804.59;5092548;28;20234;-85
2023/07/23 02:28:43;;;;;;;3.50;2.67;;;;;;;16.66;74.27;97810.72;5092656;28;20227;-84
2023/07/23 02:31:11;;;;;;;3.20;2.90;;;;;;;16.57;74.28;97800.91;5092221;28;20209;-85
2023/07/23 02:33:37;;;;;;;2.87;2.27;;;;;;;16.54;74.84;97801.25;5093053;28;20218;-85
2023/07/23 02:36:04;;;;;;;3.23;2.63;;;;;;;16.51;75.03;97806.88;5092557;28;20250;-84
2023/07/23 02:38:31;;;;;;;3.17;2.50;;;;;;;16.48;75.12;97811.66;5092525;28;20203;-84
2023/07/23 02:40:58;;;;;;;3.53;2.70;;;;;;;16.44;75.06;97812.94;5092176;28;20221;-85
2023/07/23 02:43:25;;;;;;;3.17;2.53;;;;;;;16.44;74.85;97816.47;5092489;28;20206;-85
2023/07/23 02:45:52;;;;;;;3.00;2.67;;;;;;;16.45;74.70;97818.13;5092734;28;20600;-85
2023/07/23 02:48:20;;;;;;;2.70;2.27;;;;;;;16.47;74.51;97815.31;5092546;28;20214;-84
2023/07/23 02:50:46;;;;;;;2.90;2.53;;;;;;;16.48;74.95;97811.66;5091834;28;20210;-84
2023/07/23 02:53:13;;;;;;;3.03;2.50;;;;;;;16.48;74.56;97823.19;5092329;28;20210;-86
2023/07/23 02:55:39;;;;;;;3.23;2.40;;;;;;;16.53;73.58;97810.22;5092491;28;20206;-85
2023/07/23 02:58:06;;;;;;;3.73;2.73;;;;;;;16.55;73.71;97813.59;5092297;28;20206;-85
2023/07/23 03:00:32;;;;;;;2.80;2.53;;;;;;;16.51;74.20;97816.72;5091426;28;20600;-84
2023/07/23 03:02:58;;;;;;;3.03;2.73;;;;;;;16.55;73.48;97808.25;5092276;28;20210;-86
2023/07/23 03:05:26;;;;;;;3.00;2.50;;;;;;;16.60;73.18;97811.31;5092318;28;20226;-85
2023/07/23 03:07:53;;;;;;;3.27;2.50;;;;;;;16.65;73.05;97814.34;5092104;28;20237;-85
2023/07/23 03:10:20;;;;;;;3.40;2.40;;;;;;;16.76;71.75;97811.44;5091493;28;20304;-84
2023/07/23 03:12:46;;;;;;;2.87;2.27;;;;;;;16.84;70.78;97806.22;5092121;28;20253;-84
2023/07/23 03:15:13;;;;;;;3.30;2.57;;;;;;;16.92;70.31;97805.44;5091887;28;20213;-85
2023/07/23 03:17:39;;;;;;;2.40;2.13;;;;;;;16.93;70.39;97802.63;5091839;28;20226;-85
2023/07/23 03:20:08;;;;;;;2.97;2.33;;;;;;;16.95;70.42;97800.63;5090862;28;20221;-84
2023/07/23 03:22:36;;;;;;;3.10;2.50;;;;;;;16.97;70.09;97809.34;5091806;28;20215;-84
2023/07/23 03:25:02;;;;;;;2.83;2.20;;;;;;;16.92;69.93;97794.75;5091532;28;20206;-84
2023/07/23 03:27:29;;;;;;;2.87;2.27;;;;;;;16.95;69.69;97805.97;5091380;28;20228;-84
2023/07/23 03:29:55;;;;;;;4.00;2.70;;;;;;;16.87;70.51;97808.56;5090598;28;20226;-85
2023/07/23 03:32:22;;;;;;;3.07;2.33;;;;;;;16.91;69.97;97807.28;5091430;28;20237;-86
2023/07/23 03:34:48;;;;;;;2.60;2.10;;;;;;;16.91;69.68;97809.94;5091928;28;20210;-85
2023/07/23 03:37:15;;;;;;;2.90;2.17;;;;;;;16.98;69.20;97804.81;5106323;22;20234;-75
2023/07/23 03:39:43;;;;;;;3.00;2.70;;;;;;;17.00;69.19;97809.00;5090714;28;20289;-76
2023/07/23 03:42:10;;;;;;;3.27;2.47;;;;;;;17.00;68.94;97803.69;5091354;28;20214;-76
2023/07/23 03:44:37;;;;;;;2.33;2.00;;;;;;;17.02;68.94;97808.88;5091331;28;20206;-78
2023/07/23 03:47:13;;;;;;;2.73;2.40;;;;;;;16.99;69.12;97807.34;5091560;28;20235;-76
2023/07/23 03:49:40;;;;;;;2.97;2.53;;;;;;;17.01;68.70;97805.34;5090577;28;20233;-76
2023/07/23 03:52:07;;;;;;;3.30;2.60;;;;;;;17.10;68.53;97799.09;5091451;28;20206;-76
2023/07/23 03:54:34;;;;;;;3.67;2.50;;;;;;;17.18;68.07;97790.31;5092848;28;20217;-76
2023/07/23 03:57:03;;;;;;;3.23;2.50;;;;;;;17.22;67.38;97791.66;5095213;28;20222;-76
2023/07/23 03:59:30;;;;;;;3.10;2.20;;;;;;;17.23;67.22;97794.19;5094590;28;20672;-76
2023/07/23 04:01:57;;;;;;;3.23;2.30;;;;;;;17.30;66.85;97792.56;5095643;28;20198;-76
2023/07/23 04:04:24;;;;;;;2.90;2.20;;;;;;;17.33;66.88;97794.94;5095563;28;20206;-76
2023/07/23 04:06:50;;;;;;;5.30;2.40;;;;;;;17.34;67.07;97793.94;5095386;28;20231;-76
2023/07/23 04:09:17;;;;;;;3.33;2.20;;;;;;;17.33;67.34;97799.44;5095710;28;20230;-77
2023/07/23 04:11:44;;;;;;;3.07;2.53;;;;;;;17.36;67.44;97799.97;5097728;28;20211;-77
2023/07/23 04:14:12;;;;;;;2.80;2.50;;;;;;;17.42;66.50;97794.03;5098015;28;20210;-77
2023/07/23 04:16:38;;;;;;;3.50;2.70;;;;;;;17.46;66.64;97803.41;5098681;28;20249;-77
2023/07/23 04:19:05;;;;;;;3.23;2.30;;;;;;;17.52;66.45;97805.47;5101418;28;20203;-77
2023/07/23 04:21:31;;;;;;;2.83;2.40;;;;;;;17.55;66.21;97804.31;5094454;28;20213;-77
2023/07/23 04:24:00;;;;;;;2.83;2.23;;;;;;;17.59;65.90;97803.84;5094711;28;20198;-76
2023/07/23 04:26:28;;;;;;;3.17;2.43;;;;;;;17.65;66.07;97807.69;5094683;28;20230;-76
2023/07/23 04:28:54;;;;;;;4.97;2.63;;;;;;;17.67;65.92;97803.88;5094847;28;20592;-76
2023/07/23 04:31:22;;;;;;;2.40;2.20;;;;;;;17.77;65.36;97804.63;5093559;28;20215;-78
2023/07/23 04:33:49;;;;;;;2.80;2.20;;;;;;;17.84;65.38;97800.31;5094677;28;20226;-77
2023/07/23 04:36:16;;;;;;;3.50;2.20;;;;;;;17.82;65.46;97807.66;5094503;28;20238;-76
2023/07/23 04:38:43;;;;;;;3.13;2.57;;;;;;;17.84;65.47;97803.00;5094688;28;20207;-76
2023/07/23 04:41:11;;;;;;;2.63;2.40;;;;;;;17.91;65.41;97801.34;5094109;28;20199;-76
2023/07/23 04:43:39;;;;;;;7.00;2.77;;;;;;;17.96;65.62;97808.88;5094687;28;20207;-76
2023/07/23 04:46:05;;;;;;;3.03;2.50;;;;;;;17.97;65.59;97806.06;5094555;28;20206;-75
2023/07/23 04:48:34;;;;;;;2.53;1.87;;;;;;;17.94;66.43;97817.09;5094538;28;20207;-76
2023/07/23 04:51:03;;;;;;;2.13;1.90;;;;;;;17.98;66.44;97807.72;5093597;28;20223;-78
2023/07/23 04:53:29;;;;;;;3.00;2.47;;;;;;;18.08;66.04;97819.16;5094566;28;20226;-76
2023/07/23 04:55:58;;;;;;;4.03;2.03;;;;;;;18.07;66.23;97820.16;5094551;28;20211;-76
2023/07/23 04:58:26;;;;;;;2.40;2.10;;;;;;;18.16;65.61;97810.34;5094374;28;20213;-76
2023/07/23 05:00:52;;;;;;;3.10;2.13;;;;;;;18.16;65.53;97816.50;5093350;28;20641;-76
2023/07/23 05:03:19;;;;;;;2.63;2.20;;;;;;;18.26;65.65;97819.91;5094230;28;20215;-76
2023/07/23 05:05:50;;;;;;;2.70;2.23;;;;;;;18.29;66.01;97830.28;5093576;28;20215;-76
2023/07/23 05:08:17;;;;;;;2.77;2.03;;;;;;;18.41;65.08;97812.97;5094252;28;20235;-77
2023/07/23 05:10:43;;;;;;;2.70;2.30;;;;;;;18.55;64.82;97812.34;5093460;28;20230;-78
2023/07/23 05:13:12;;;;;;;2.87;2.60;;;;;;;18.63;64.60;97816.88;5093993;28;20211;-76
2023/07/23 05:15:38;;;;;;;3.10;2.20;;;;;;;18.71;64.45;97817.72;5094037;28;20268;-76
2023/07/23 05:18:05;;;;;;;3.93;2.37;;;;;;;18.81;64.26;97823.78;5093837;28;20240;-76
2023/07/23 05:20:32;;;;;;;2.47;2.27;;;;;;;18.96;64.46;97814.09;5093179;28;20669;-76
2023/07/23 05:22:59;;;;;;;3.17;2.13;;;;;;;19.13;63.95;97821.16;5094000;28;20210;-76
2023/07/23 05:25:26;;;;;;;2.67;2.30;;;;;;;19.45;62.35;97809.63;5093747;28;20214;-76
2023/07/23 05:27:52;;;;;;;2.27;2.07;;;;;;;19.93;60.65;97802.31;5095145;28;20222;-80
2023/07/23 05:30:20;;;;;;;2.70;2.30;;;;;;;20.30;59.11;97789.13;5093634;28;20233;-81
2023/07/23 05:32:46;;;;;;;2.20;2.00;;;;;;;20.43;58.17;97794.78;5093739;28;20202;-76
2023/07/23 05:35:13;;;;;;;2.77;2.23;;;;;;;21.02;56.17;97780.69;5093694;28;20211;-76
2023/07/23 05:37:40;;;;;;;2.97;2.40;;;;;;;21.60;54.41;97774.66;5093370;28;20242;-79
2023/07/23 05:40:09;;;;;;;4.70;2.00;;;;;;;22.21;52.87;97772.50;5092892;28;20211;-88
2023/07/23 05:42:35;;;;;;;2.37;2.10;;;;;;;22.76;51.44;97771.94;5093355;28;20221;-77
2023/07/23 05:45:03;;;;;;;2.53;1.90;;;;;;;23.16;50.49;97769.47;5093343;28;20202;-77
2023/07/23 05:47:29;;;;;;;3.23;2.30;;;;;;;23.61;50.17;97768.22;5093193;28;20262;-78
2023/07/23 05:49:56;;;;;;;2.00;1.80;;;;;;;24.05;48.91;97764.19;5092678;28;20274;-82
2023/07/23 05:52:22;;;;;;;2.10;1.90;;;;;;;24.38;48.57;97762.50;5093402;28;20207;-81
2023/07/23 05:54:49;;;;;;;2.53;2.20;;;;;;;24.73;47.41;97764.13;5093131;28;20214;-80
2023/07/23 05:57:16;;;;;;;2.00;1.80;;;;;;;24.89;46.36;97763.75;5093137;28;20609;-81
2023/07/23 05:59:43;;;;;;;2.23;2.00;;;;;;;25.08;46.09;97773.78;5092258;28;20210;-84
2023/07/23 06:02:10;;;;;;;2.87;2.30;;;;;;;25.29;45.95;97772.81;5093076;28;20210;-81
2023/07/23 06:04:38;;;;;;;2.90;2.10;;;;;;;25.52;45.03;97763.25;5093292;28;20207;-81
2023/07/23 06:07:05;;;;;;;2.47;1.70;;;;;;;25.74;44.53;97759.28;5092894;28;20238;-81
2023/07/23 06:09:31;;;;;;;3.07;2.40;;;;;;;26.08;44.34;97771.75;5092243;28;20202;-82
2023/07/23 06:11:58;;;;;;;2.78;2.40;;;;;;;26.29;43.33;97766.91;5093066;28;20228;-82
2023/07/23 06:14:26;;;;;;;3.07;1.90;;;;;;;26.18;43.47;97772.97;5093021;28;20207;-80
2023/07/23 06:16:52;;;;;;;2.47;2.17;;;;;;;25.91;43.88;97790.31;5092160;28;20233;-82
2023/07/23 06:19:19;;;;;;;2.70;1.88;;;;;;;25.81;44.31;97795.31;5092409;28;20207;-81
2023/07/23 06:21:45;;;;;;;2.30;2.10;;;;;;;25.58;44.86;97797.59;5092785;28;20211;-82
2023/07/23 06:24:12;;;;;;;2.47;2.03;;;;;;;25.40;45.37;97804.66;5093291;28;20214;-82
2023/07/23 06:26:38;;;;;;;2.38;2.17;;;;;;;24.87;44.88;97797.44;5092627;28;20226;-82
2023/07/23 06:29:05;;;;;;;2.42;2.00;;;;;;;24.79;45.59;97801.16;5092380;28;20217;-82
2023/07/23 06:31:33;;;;;;;2.30;2.03;;;;;;;24.45;46.01;97798.47;5092480;28;20227;-82
2023/07/23 06:33:59;;;;;;;3.10;2.20;;;;;;;24.12;46.00;97794.78;5092915;28;20552;-80
2023/07/23 06:36:26;;;;;;;2.80;2.40;;;;;;;23.95;46.37;97798.81;5092423;28;20234;-80
2023/07/23 06:38:52;;;;;;;2.80;2.07;;;;;;;24.16;46.18;97804.16;5092549;28;20203;-81
2023/07/23 06:41:19;;;;;;;2.30;2.10;;;;;;;24.78;45.15;97796.78;5091751;28;20225;-81
2023/07/23 06:43:45;;;;;;;3.17;2.10;;;;;;;25.04;44.92;97799.56;5092429;28;20207;-80
2023/07/23 06:46:17;;;;;;;2.17;1.97;;;;;;;25.48;44.05;97794.44;5092386;28;20209;-80
2023/07/23 06:48:45;;;;;;;3.00;2.50;;;;;;;25.77;43.14;97779.66;5092261;28;20216;-80
2023/07/23 06:51:11;;;;;;;3.65;2.08;;;;;;;25.91;42.18;97781.38;5091343;28;20572;-77
2023/07/23 06:53:38;;;;;;;2.43;2.20;;;;;;;26.49;41.73;97783.94;5090233;28;20448;-79
2023/07/23 06:56:06;;;;;;;2.50;2.30;;;;;;;26.56;40.77;97782.06;5089081;28;20465;-79
2023/07/23 06:58:35;;;;;;;2.78;2.25;;;;;;;26.45;41.45;97784.59;5090914;28;20209;-79
2023/07/23 07:01:02;;;;;;;2.60;2.35;;;;;;;26.30;41.14;97786.69;5090263;28;20213;-80
2023/07/23 07:03:28;;;;;;;2.38;2.17;;;;;;;26.21;42.41;97783.38;5089857;28;20755;-80
2023/07/23 07:05:57;;;;;;;3.88;2.30;;;;;;;25.55;42.37;97781.75;5090621;28;20222;-80
2023/07/23 07:08:23;;;;;;;2.30;2.08;;;;;;;25.15;43.07;97788.16;5090964;28;20214;-78
2023/07/23 07:10:51;;;;;;;3.10;2.40;;;;;;;24.79;43.76;97795.75;5089430;28;20594;-80
2023/07/23 07:13:17;;;;;;;2.83;2.23;;;;;;;24.75;44.25;97796.38;5091107;28;20222;-78
2023/07/23 07:15:44;;;;;;;4.00;2.07;;;;;;;24.35;45.03;97795.31;5090344;28;20199;-79
2023/07/23 07:18:10;;;;;;;2.80;2.50;;;;;;;24.04;45.08;97797.63;5091810;28;20226;-80
2023/07/23 07:20:37;;;;;;;2.90;2.20;;;;;;;23.84;45.33;97799.31;5090976;28;20211;-80
2023/07/23 07:23:05;;;;;;;4.33;2.50;;;;;;;23.78;45.91;97800.09;5091537;28;20207;-78
2023/07/23 07:25:31;;;;;;;2.53;2.33;;;;;;;23.86;46.81;97802.66;5091547;28;20230;-79
2023/07/23 07:27:58;;;;;;;2.90;2.20;;;;;;;23.92;47.18;97806.47;5091259;28;20225;-78
2023/07/23 07:30:24;;;;;;;2.57;2.10;;;;;;;23.91;46.58;97802.94;5090642;28;20227;-78
2023/07/23 07:32:53;;;;;;;2.60;2.30;;;;;;;24.03;47.23;97804.03;5090729;28;20213;-78
2023/07/23 07:35:19;;;;;;;2.40;2.20;;;;;;;24.12;46.83;97804.72;5088784;28;20211;-77
2023/07/23 07:37:46;;;;;;;3.10;2.50;;;;;;;24.28;46.74;97794.47;5088481;28;20250;-78
2023/07/23 07:40:15;;;;;;;2.27;2.07;;;;;;;24.52;47.19;97802.06;5088491;28;20214;-79
2023/07/23 07:42:41;;;;;;;2.00;1.80;;;;;;;24.68;45.61;97787.41;5090552;28;20207;-78
2023/07/23 07:45:08;;;;;;;2.67;2.20;;;;;;;24.66;45.05;97790.28;5091256;28;20218;-78
2023/07/23 07:47:35;;;;;;;2.33;1.97;;;;;;;24.78;45.35;97788.69;5089635;28;20318;-78
2023/07/23 07:50:03;;;;;;;2.67;2.23;;;;;;;24.98;45.60;97794.13;5087601;28;20206;-78
2023/07/23 07:52:29;;;;;;;3.13;2.03;;;;;;;24.97;44.19;97787.91;5088466;28;20305;-78
2023/07/23 07:54:59;;;;;;;2.88;2.22;;;;;;;25.10;43.90;97792.50;5088663;28;20454;-78
2023/07/23 07:57:27;;;;;;;2.40;2.10;;;;;;;25.01;43.92;97791.88;5091314;28;20778;-79
2023/07/23 07:59:54;;;;;;;2.07;1.90;;;;;;;25.10;44.26;97785.22;5090258;28;20617;-78
2023/07/23 08:02:21;;;;;;;2.27;2.07;;;;;;;25.11;44.16;97773.34;5091081;28;20215;-78
2023/07/23 08:04:49;;;;;;;2.77;2.20;;;;;;;25.13;44.31;97783.97;5090989;28;20210;-79
2023/07/23 08:07:19;;;;;;;2.20;1.90;;;;;;;25.24;44.64;97795.06;5091420;28;20242;-79
2023/07/23 08:09:46;;;;;;;2.40;2.20;;;;;;;25.26;44.90;97787.59;5090626;28;20215;-78
2023/07/23 08:12:13;;;;;;;2.37;2.17;;;;;;;25.51;44.81;97788.66;5090938;28;20226;-77
2023/07/23 08:14:42;;;;;;;2.27;1.77;;;;;;;25.72;44.43;97783.00;5091259;28;20285;-79
2023/07/23 08:17:10;;;;;;;2.97;2.15;;;;;;;25.99;43.15;97784.69;5090588;28;20237;-79
2023/07/23 08:19:36;;;;;;;1.90;1.60;;;;;;;26.16;42.72;97780.47;5090251;28;20207;-81
2023/07/23 08:22:04;;;;;;;2.10;1.90;;;;;;;26.20;43.08;97792.56;5091394;28;20207;-80
2023/07/23 08:24:31;;;;;;;3.90;2.30;;;;;;;26.21;42.75;97783.38;5091128;28;20210;-81
2023/07/23 08:27:02;;;;;;;3.55;2.08;;;;;;;25.96;42.96;97790.50;5091205;28;20230;-82
2023/07/23 08:29:29;;;;;;;2.00;1.80;;;;;;;26.00;43.13;97785.50;5090611;28;20241;-83
2023/07/23 08:31:58;;;;;;;2.10;1.90;;;;;;;26.15;43.73;97792.34;5090775;28;20234;-81
2023/07/23 08:34:26;;;;;;;2.75;2.22;;;;;;;26.22;42.96;97790.47;5091343;28;20242;-81
2023/07/23 08:36:54;;;;;;;2.28;2.05;;;;;;;26.12;42.17;97784.66;5091152;28;20231;-82
2023/07/23 08:39:21;;;;;;;2.50;2.30;;;;;;;26.05;42.38;97789.28;5090845;28;20275;-81
2023/07/23 08:42:13;;;;;;;2.05;1.88;;;;;;;26.26;42.92;97788.16;5094386;28;20202;-82
2023/07/23 08:45:11;;;;;;;3.08;1.92;;;;;;;26.27;42.66;97793.38;5095559;28;20193;-88
2023/07/23 08:47:40;;;;;;;1.80;1.50;;;;;;;26.26;42.11;97780.88;5095405;28;20700;-83
2023/07/23 08:50:07;;;;;;;2.85;1.70;;;;;;;26.17;41.95;97776.75;5094728;28;20206;-85
2023/07/23 08:52:35;;;;;;;2.05;1.70;;;;;;;26.06;42.28;97781.94;5094348;28;20207;-84
2023/07/23 08:55:03;;;;;;;2.65;1.60;;;;;;;26.10;41.50;97770.47;5095342;28;20207;-86
2023/07/23 08:57:30;;;;;;;1.98;1.52;;;;;;;26.02;41.79;97778.03;5092583;28;20230;-85
2023/07/23 08:59:59;;;;;;;2.47;1.73;;;;;;;26.08;41.95;97782.59;5091283;28;20222;-79
2023/07/23 09:02:26;;;;;;;1.75;1.65;;;;;;;26.33;42.24;97786.28;5091896;28;20294;-75
2023/07/23 09:04:54;;;;;;;2.08;1.77;;;;;;;26.29;41.39;97785.03;5093226;28;20206;-79
2023/07/23 09:07:21;;;;;;;1.48;1.38;;;;;;;26.37;41.68;97782.09;5094654;28;20227;-79
2023/07/23 09:09:49;;;;;;;1.60;1.50;;;;;;;26.42;41.80;97785.84;5093951;28;20785;-79
2023/07/23 09:12:16;;;;;;;2.33;1.73;;;;;;;26.40;41.91;97777.06;5094909;28;20226;-78
2023/07/23 09:14:43;;;;;;;2.50;1.50;;;;;;;26.34;41.75;97783.34;5096167;28;20626;-78
2023/07/23 09:17:17;;;;;;;2.45;1.75;;;;;;;26.27;41.48;97781.72;5095448;28;20241;-81
2023/07/23 09:19:44;;;;;;;1.45;1.17;;;;;;;26.53;41.93;97787.88;5093205;28;20211;-80
2023/07/23 09:22:11;;;;;;;1.70;1.38;;;;;;;26.81;40.78;97774.03;5093483;28;20211;-79
2023/07/23 09:24:38;;;;;;;2.38;1.60;;;;;;;26.80;40.44;97778.63;5093992;28;20218;-80
2023/07/23 09:27:09;;;;;;;1.83;1.45;;;;;;;26.88;40.40;97767.50;5093874;28;20619;-79
2023/07/23 09:29:37;;;;;;;1.60;1.50;;;;;;;27.02;40.39;97781.84;5093111;28;20224;-79
2023/07/23 09:32:04;;;;;;;2.28;1.80;;;;;;;27.07;40.73;97782.84;5093258;28;20253;-79
2023/07/23 09:34:31;;;;;;;1.75;1.60;;;;;;;27.09;40.38;97767.19;5093538;28;20206;-79
2023/07/23 09:36:57;;;;;;;1.50;1.40;;;;;;;27.26;39.82;97757.47;5108868;22;20231;-86
2023/07/23 09:39:27;;;;;;;2.10;1.40;;;;;;;27.27;40.17;97761.88;5093279;28;20691;-83
2023/07/23 09:41:54;;;;;;;2.45;1.77;;;;;;;27.27;39.47;97751.03;5093926;28;20242;-82
2023/07/23 09:44:25;;;;;;;1.48;1.35;;;;;;;27.42;40.01;97757.81;5093905;28;20699;-84
2023/07/23 09:46:51;;;;;;;1.83;1.60;;;;;;;27.35;40.03;97761.63;5093962;28;20728;-83
2023/07/23 09:49:24;;;;;;;1.75;1.65;;;;;;;27.23;40.11;97751.66;5092984;28;20206;-83
2023/07/23 09:51:52;;;;;;;1.95;1.60;;;;;;;27.12;40.22;97747.75;5092792;28;20223;-84
2023/07/23 09:54:18;;;;;;;1.65;1.52;;;;;;;27.22;39.11;97750.00;5094099;28;20214;-83
2023/07/23 09:56:47;;;;;;;1.50;1.40;;;;;;;27.13;38.81;97757.53;5094096;28;20230;-84
2023/07/23 09:59:15;;;;;;;1.50;1.40;;;;;;;27.39;38.79;97752.00;5089845;28;20202;-84
2023/07/23 10:01:43;;;;;;;2.58;1.83;;;;;;;27.40;37.97;97742.78;5088802;28;20207;-84
2023/07/23 10:04:12;;;;;;;2.10;1.60;;;;;;;27.55;38.20;97740.56;5090107;28;20202;-85
2023/07/23 10:06:38;;;;;;;2.08;1.75;;;;;;;27.74;38.05;97728.69;5090072;28;20261;-84
2023/07/23 10:09:05;;;;;;;2.70;1.60;;;;;;;27.89;38.12;97742.78;5091553;28;20214;-84
2023/07/23 10:11:32;;;;;;;2.30;1.88;;;;;;;27.97;37.82;97745.22;5092334;28;20713;-84
2023/07/23 10:14:02;;;;;;;1.98;1.77;;;;;;;27.78;37.92;97735.38;5092651;28;20635;-84
2023/07/23 10:16:30;;;;;;;3.08;1.80;;;;;;;27.63;38.33;97745.72;5092757;28;20207;-84
2023/07/23 10:18:59;;;;;;;2.25;1.83;;;;;;;27.64;38.61;97745.47;5092490;28;20215;-84
2023/07/23 10:21:30;;;;;;;1.67;1.58;;;;;;;27.83;38.40;97749.13;5091692;28;20756;-84
2023/07/23 10:23:58;;;;;;;1.70;1.60;;;;;;;27.86;38.30;97743.22;5092457;28;20217;-84
2023/07/23 10:26:27;;;;;;;1.98;1.75;;;;;;;27.88;38.58;97739.25;5092289;28;20229;-84
2023/07/23 10:28:58;;;;;;;2.50;1.80;;;;;;;27.75;38.53;97736.63;5092509;28;20199;-84
2023/07/23 10:31:29;;;;;;;2.22;1.52;;;;;;;27.78;38.53;97735.38;5091394;28;20287;-84
2023/07/23 10:33:56;;;;;;;2.05;1.75;;;;;;;27.56;38.36;97726.78;5092403;28;20297;-84
2023/07/23 10:36:24;;;;;;;1.75;1.60;;;;;;;27.61;37.47;97712.53;5092005;28;20590;-84
2023/07/23 10:39:17;;;;;;;2.00;1.80;;;;;;;27.32;37.64;97718.59;5092153;28;20207;-83
2023/07/23 10:41:49;;;;;;;1.98;1.60;;;;;;;27.33;39.67;97725.72;5092564;28;20263;-84
2023/07/23 10:44:21;;;;;;;2.33;1.92;;;;;;;27.39;39.86;97725.66;5092270;28;20203;-84
2023/07/23 10:46:49;;;;;;;2.50;1.90;;;;;;;27.58;39.13;97716.50;5091993;28;20231;-84
2023/07/23 10:49:21;;;;;;;2.33;1.90;;;;;;;27.23;38.75;97706.38;5091257;28;20207;-84
2023/07/23 10:51:50;;;;;;;1.90;1.60;;;;;;;27.08;38.53;97699.56;5092134;28;20318;-84
2023/07/23 10:54:17;;;;;;;2.53;1.90;;;;;;;27.33;39.22;97698.59;5091930;28;20233;-83
2023/07/23 10:56:44;;;;;;;3.35;2.00;;;;;;;27.16;38.77;97697.47;5092197;28;20238;-83
2023/07/23 10:59:14;;;;;;;2.58;1.80;;;;;;;27.23;38.27;97702.81;5091484;28;20202;-83
2023/07/23 11:01:42;;;;;;;3.13;1.70;;;;;;;27.40;38.38;97699.34;5091690;28;20207;-84
2023/07/23 11:04:12;;;;;;;2.22;2.03;;;;;;;27.71;38.93;97697.38;5091152;28;20233;-84
2023/07/23 11:06:41;;;;;;;2.35;1.98;;;;;;;27.89;37.99;97688.47;5091831;28;20322;-84
2023/07/23 11:09:10;;;;;;;3.03;1.80;;;;;;;28.05;37.74;97698.72;5091383;28;20238;-84
2023/07/23 11:11:39;;;;;;;2.42;1.90;;;;;;;28.19;37.53;97683.94;5091813;28;20222;-84
2023/07/23 11:14:18;;;;;;;2.90;1.92;;;;;;;28.23;37.09;97682.41;5092509;28;20207;-84
2023/07/23 11:16:45;;;;;;;2.08;1.85;;;;;;;27.94;37.24;97677.75;5091665;28;20230;-83
2023/07/23 11:19:13;;;;;;;2.67;1.80;;;;;;;28.10;37.49;97677.97;5091404;28;20214;-84
2023/07/23 11:21:47;;;;;;;2.78;2.00;;;;;;;28.29;36.79;97668.75;5091916;28;20207;-83
2023/07/23 11:24:14;;;;;;;2.22;1.95;;;;;;;28.37;36.61;97659.50;5091824;28;20530;-84
2023/07/23 11:26:41;;;;;;;2.05;1.85;;;;;;;28.41;35.57;97656.09;5091781;28;20230;-83
2023/07/23 11:29:08;;;;;;;2.50;2.10;;;;;;;28.64;36.51;97666.22;5090671;28;20210;-84
2023/07/23 11:31:34;;;;;;;2.05;1.85;;;;;;;28.85;35.15;97646.69;5091764;28;20222;-84
2023/07/23 11:34:01;;;;;;;2.63;2.20;;;;;;;28.77;34.77;97633.38;5091596;28;20221;-84
2023/07/23 11:36:29;;;;;;;2.00;1.80;;;;;;;28.99;35.33;97659.03;5091623;28;20233;-83